createdAt,value
2018-11-23T00:00:21.093Z,0.50
2018-11-23T00:02:50.162Z,0.40
2018-11-23T00:05:18.823Z,0.40
2018-11-23T00:07:47.718Z,0.40
2018-11-23T00:10:17.827Z,0.30
2018-11-23T00:12:46.850Z,0.30
2018-11-23T00:15:17.176Z,0.30
2018-11-23T00:17:45.594Z,0.30
2018-11-23T00:20:15.235Z,0.30
2018-11-23T00:22:43.761Z,0.30
2018-11-23T00:25:14.042Z,0.30
2018-11-23T00:27:42.703Z,0.20
2018-11-23T00:30:15.350Z,0.10
2018-11-23T00:32:44.206Z,0.10
2018-11-23T00:35:14.552Z,0.10
2018-11-23T00:37:43.489Z,0.10
2018-11-23T00:40:14.109Z,0.10
2018-11-23T00:42:43.115Z,0.10
2018-11-23T00:45:13.004Z,0.20
2018-11-23T00:47:42.196Z,0.20
2018-11-23T00:50:12.551Z,0.20
2018-11-23T00:52:41.967Z,0.20
2018-11-23T00:55:13.234Z,0.30
2018-11-23T00:57:41.700Z,0.40
2018-11-23T01:00:13.327Z,0.50
2018-11-23T01:02:42.428Z,0.50
2018-11-23T01:05:12.147Z,0.60
2018-11-23T01:07:41.730Z,0.60
2018-11-23T01:10:12.206Z,0.50
2018-11-23T01:12:40.809Z,0.50
2018-11-23T01:15:09.998Z,0.50
2018-11-23T01:17:38.935Z,0.50
2018-11-23T01:20:10.808Z,0.50
2018-11-23T01:22:39.864Z,0.50
2018-11-23T01:25:09.703Z,0.40
2018-11-23T01:27:38.647Z,0.40
2018-11-23T01:30:11.233Z,0.40
2018-11-23T01:32:39.809Z,0.50
2018-11-23T01:35:08.429Z,0.50
2018-11-23T01:37:36.822Z,0.50
2018-11-23T01:40:05.816Z,0.50
2018-11-23T01:42:34.250Z,0.40
2018-11-23T01:45:02.680Z,0.40
2018-11-23T01:47:31.119Z,0.40
2018-11-23T01:49:59.554Z,0.40
2018-11-23T01:52:28.184Z,0.30
2018-11-23T01:54:56.702Z,0.30
2018-11-23T01:57:25.086Z,0.30
2018-11-23T01:59:53.568Z,0.30
2018-11-23T02:02:22.279Z,0.30
2018-11-23T02:04:50.723Z,0.30
2018-11-23T02:07:19.020Z,0.30
2018-11-23T02:09:47.509Z,0.30
2018-11-23T02:12:15.995Z,0.20
2018-11-23T02:14:47.439Z,0.10
2018-11-23T02:17:16.113Z,0.10
2018-11-23T02:19:44.630Z,0.10
2018-11-23T02:22:13.047Z,0.10
2018-11-23T02:24:41.488Z,0.00
2018-11-23T02:27:09.980Z,0.00
2018-11-23T02:29:38.558Z,0.00
2018-11-23T02:32:07.282Z,0.00
2018-11-23T02:34:35.748Z,-0.10
2018-11-23T02:37:04.247Z,-0.10
2018-11-23T02:39:32.690Z,0.00
2018-11-23T02:42:01.222Z,0.00
2018-11-23T02:44:29.707Z,-0.10
2018-11-23T02:46:58.156Z,-0.10
2018-11-23T02:49:26.529Z,-0.20
2018-11-23T02:51:54.945Z,-0.20
2018-11-23T02:54:23.477Z,-0.20
2018-11-23T02:56:51.954Z,-0.10
2018-11-23T02:59:23.965Z,-0.10
2018-11-23T03:01:49.052Z,-0.10
2018-11-23T03:04:17.807Z,-0.10
2018-11-23T03:06:46.440Z,-0.10
2018-11-23T03:09:14.903Z,-0.10
2018-11-23T03:11:43.321Z,-0.10
2018-11-23T03:14:11.749Z,-0.20
2018-11-23T03:16:40.323Z,-0.20
2018-11-23T03:19:09.089Z,-0.20
2018-11-23T03:21:37.760Z,-0.20
2018-11-23T03:24:06.278Z,-0.30
2018-11-23T03:26:34.786Z,-0.30
2018-11-23T03:29:03.226Z,-0.30
2018-11-23T03:31:32.923Z,-0.40
2018-11-23T03:34:01.350Z,-0.50
2018-11-23T03:36:29.916Z,-0.40
2018-11-23T03:38:58.361Z,-0.50
2018-11-23T03:41:26.873Z,-0.50
2018-11-23T03:43:58.276Z,-0.50
2018-11-23T03:46:26.790Z,-0.40
2018-11-23T03:48:55.705Z,-0.50
2018-11-23T03:51:24.132Z,-0.50
2018-11-23T03:53:52.656Z,-0.60
2018-11-23T03:56:21.095Z,-0.50
2018-11-23T03:58:49.505Z,-0.60
2018-11-23T04:01:17.850Z,-0.60
2018-11-23T04:03:46.250Z,-0.60
2018-11-23T04:06:14.638Z,-0.60
2018-11-23T04:08:43.140Z,-0.50
2018-11-23T04:11:11.698Z,-0.50
2018-11-23T04:13:40.052Z,-0.50
2018-11-23T04:16:08.454Z,-0.50
2018-11-23T04:18:36.923Z,-0.50
2018-11-23T04:21:06.029Z,-0.50
2018-11-23T04:23:34.510Z,-0.60
2018-11-23T04:26:03.020Z,-0.60
2018-11-23T04:28:31.440Z,-0.60
2018-11-23T04:31:00.403Z,-0.60
2018-11-23T04:33:29.014Z,-0.70
2018-11-23T04:36:00.316Z,-0.70
2018-11-23T04:38:28.706Z,-0.70
2018-11-23T04:40:57.585Z,-0.80
2018-11-23T04:43:26.015Z,-0.80
2018-11-23T04:45:54.533Z,-0.70
2018-11-23T04:48:22.964Z,-0.60
2018-11-23T04:50:51.296Z,-0.50
2018-11-23T04:53:19.688Z,-0.60
2018-11-23T04:55:48.065Z,-0.50
2018-11-23T04:58:16.523Z,-0.60
2018-11-23T05:00:45.039Z,-0.60
2018-11-23T05:03:13.417Z,-0.60
2018-11-23T05:05:41.835Z,-0.60
2018-11-23T05:08:10.406Z,-0.60
2018-11-23T05:10:38.867Z,-0.60
2018-11-23T05:13:07.404Z,-0.60
2018-11-23T05:15:36.000Z,-0.60
2018-11-23T05:18:05.391Z,-0.60
2018-11-23T05:20:33.891Z,-0.60
2018-11-23T05:23:02.410Z,-0.60
2018-11-23T05:25:30.879Z,-0.70
2018-11-23T05:27:59.242Z,-0.70
2018-11-23T05:30:28.141Z,-0.70
2018-11-23T05:32:56.580Z,-0.70
2018-11-23T05:35:25.012Z,-0.80
2018-11-23T05:37:53.481Z,-0.90
2018-11-23T05:40:22.062Z,-0.90
2018-11-23T05:42:50.491Z,-0.90
2018-11-23T05:45:20.350Z,-0.90
2018-11-23T05:47:48.999Z,-0.90
2018-11-23T05:50:20.391Z,-0.90
2018-11-23T05:52:48.896Z,-1.00
2018-11-23T05:55:17.261Z,-1.00
2018-11-23T05:57:45.712Z,-1.10
2018-11-23T06:00:17.949Z,-1.00
2018-11-23T06:02:46.350Z,-1.10
2018-11-23T06:05:14.880Z,-1.10
2018-11-23T06:07:43.648Z,-1.10
2018-11-23T06:10:14.891Z,-1.10
2018-11-23T06:12:43.429Z,-1.00
2018-11-23T06:15:14.615Z,-1.10
2018-11-23T06:17:43.441Z,-1.00
2018-11-23T06:20:15.067Z,-1.00
2018-11-23T06:22:44.797Z,-1.00
2018-11-23T06:25:20.882Z,-1.10
2018-11-23T06:27:51.054Z,-1.10
2018-11-23T06:30:19.947Z,-1.10
2018-11-23T06:32:57.873Z,-1.10
2018-11-23T06:35:27.516Z,-1.10
2018-11-23T06:37:56.665Z,-1.00
2018-11-23T06:40:25.197Z,-1.00
2018-11-23T06:42:53.597Z,-0.90
2018-11-23T06:45:22.085Z,-0.90
2018-11-23T06:47:50.820Z,-0.90
2018-11-23T06:50:19.480Z,-0.90
2018-11-23T06:52:47.984Z,-0.90
2018-11-23T06:55:17.185Z,-0.90
2018-11-23T06:57:45.621Z,-0.90
2018-11-23T07:00:16.731Z,-1.00
2018-11-23T07:02:45.705Z,-0.90
2018-11-23T07:05:14.409Z,-0.80
2018-11-23T07:07:42.815Z,-0.90
2018-11-23T07:10:12.018Z,-0.80
2018-11-23T07:12:41.416Z,-0.80
2018-11-23T07:15:11.802Z,-0.80
2018-11-23T07:17:40.729Z,-0.70
2018-11-23T07:20:11.162Z,-0.70
2018-11-23T07:22:40.352Z,-0.50
2018-11-23T07:25:10.119Z,-0.40
2018-11-23T07:27:38.747Z,-0.10
2018-11-23T07:30:13.535Z,0.10
2018-11-23T07:32:42.226Z,0.20
2018-11-23T07:35:10.851Z,0.30
2018-11-23T07:37:39.312Z,0.40
2018-11-23T07:40:17.647Z,0.70
2018-11-23T07:42:46.177Z,0.90
2018-11-23T07:45:14.598Z,1.30
2018-11-23T07:47:43.312Z,1.60
2018-11-23T07:50:12.844Z,1.60
2018-11-23T07:52:41.395Z,1.80
2018-11-23T07:55:10.961Z,2.00
2018-11-23T07:57:39.467Z,2.30
2018-11-23T08:00:11.566Z,2.60
2018-11-23T08:02:40.260Z,2.80
2018-11-23T08:05:10.406Z,3.00
2018-11-23T08:07:39.036Z,2.80
2018-11-23T08:10:11.234Z,2.40
2018-11-23T08:12:40.906Z,2.20
2018-11-23T08:15:12.079Z,2.00
2018-11-23T08:17:40.841Z,2.20
2018-11-23T08:20:11.977Z,2.50
2018-11-23T08:22:40.714Z,3.00
2018-11-23T08:25:10.331Z,2.90
2018-11-23T08:27:39.496Z,2.90
2018-11-23T08:30:16.104Z,3.10
2018-11-23T08:32:45.260Z,3.10
2018-11-23T08:35:14.407Z,3.70
2018-11-23T08:37:43.968Z,4.20
2018-11-23T08:40:14.541Z,4.90
2018-11-23T08:42:43.572Z,5.20
2018-11-23T08:45:14.100Z,5.80
2018-11-23T08:47:42.607Z,6.00
2018-11-23T08:50:14.887Z,6.00
2018-11-23T08:52:43.512Z,5.80
2018-11-23T08:55:12.868Z,5.10
2018-11-23T08:57:41.904Z,5.10
2018-11-23T09:00:17.141Z,4.90
2018-11-23T09:02:46.925Z,4.90
2018-11-23T09:05:16.210Z,4.70
2018-11-23T09:07:45.899Z,4.70
2018-11-23T09:10:18.423Z,4.70
2018-11-23T09:12:50.743Z,4.40
2018-11-23T09:15:19.582Z,4.30
2018-11-23T09:17:48.575Z,4.40
2018-11-23T09:20:17.687Z,4.40
2018-11-23T09:22:46.417Z,4.50
2018-11-23T09:25:19.161Z,4.80
2018-11-23T09:27:47.573Z,4.60
2018-11-23T09:30:19.006Z,4.80
2018-11-23T09:32:53.931Z,4.70
2018-11-23T09:35:22.960Z,4.90
2018-11-23T09:37:51.804Z,4.90
2018-11-23T09:40:21.792Z,4.70
2018-11-23T09:42:50.639Z,4.50
2018-11-23T09:45:22.032Z,4.50
2018-11-23T09:47:51.896Z,4.60
2018-11-23T09:50:21.530Z,4.60
2018-11-23T09:52:51.378Z,4.60
2018-11-23T09:55:20.413Z,4.70
2018-11-23T09:57:48.947Z,4.70
2018-11-23T10:00:20.255Z,4.80
2018-11-23T10:02:49.612Z,4.90
2018-11-23T10:05:18.684Z,4.90
2018-11-23T10:07:48.617Z,5.00
2018-11-23T10:10:18.063Z,4.90
2018-11-23T10:12:46.791Z,5.00
2018-11-23T10:15:16.762Z,5.00
2018-11-23T10:17:45.237Z,5.10
2018-11-23T10:20:15.793Z,5.00
2018-11-23T10:22:44.546Z,4.80
2018-11-23T10:25:15.279Z,4.60
2018-11-23T10:27:44.282Z,4.50
2018-11-23T10:30:15.852Z,4.60
2018-11-23T10:32:45.290Z,4.70
2018-11-23T10:35:13.637Z,4.90
2018-11-23T10:37:43.033Z,4.90
2018-11-23T10:40:14.348Z,4.90
2018-11-23T10:42:43.040Z,4.90
2018-11-23T10:45:14.722Z,4.90
2018-11-23T10:47:43.213Z,4.90
2018-11-23T10:50:14.348Z,4.90
2018-11-23T10:52:42.829Z,5.00
2018-11-23T10:55:13.841Z,5.20
2018-11-23T10:57:42.323Z,5.30
2018-11-23T11:00:16.677Z,5.40
2018-11-23T11:02:49.707Z,5.40
2018-11-23T11:05:22.561Z,5.40
2018-11-23T11:07:51.064Z,5.40
2018-11-23T11:10:19.545Z,5.40
2018-11-23T11:12:48.333Z,5.40
2018-11-23T11:15:16.820Z,5.50
2018-11-23T11:17:45.310Z,5.60
2018-11-23T11:20:13.649Z,5.60
2018-11-23T11:22:42.093Z,5.70
2018-11-23T11:25:11.148Z,5.70
2018-11-23T11:27:40.277Z,5.70
2018-11-23T11:30:13.352Z,5.80
2018-11-23T11:32:42.539Z,5.90
2018-11-23T11:35:11.635Z,5.90
2018-11-23T11:37:40.170Z,5.90
2018-11-23T11:40:10.777Z,5.90
2018-11-23T11:42:39.554Z,6.00
2018-11-23T11:45:09.910Z,6.10
2018-11-23T11:47:38.418Z,6.10
2018-11-23T11:50:08.599Z,6.10
2018-11-23T11:52:38.645Z,6.20
2018-11-23T11:55:08.761Z,6.20
2018-11-23T11:57:37.236Z,6.30
2018-11-23T12:00:07.693Z,6.30
2018-11-23T12:02:36.180Z,6.30
2018-11-23T12:05:05.864Z,6.40
2018-11-23T12:07:34.309Z,6.40
2018-11-23T12:10:02.863Z,6.50
2018-11-23T12:12:31.362Z,6.60
2018-11-23T12:14:59.687Z,6.70
2018-11-23T12:17:28.133Z,6.70
2018-11-23T12:19:56.488Z,6.70
2018-11-23T12:22:24.957Z,6.70
2018-11-23T12:24:53.878Z,6.70
2018-11-23T12:27:22.284Z,6.70
2018-11-23T12:29:50.650Z,6.80
2018-11-23T12:32:19.235Z,6.80
2018-11-23T12:34:47.729Z,6.90
2018-11-23T12:37:16.120Z,6.90
2018-11-23T12:39:44.512Z,7.00
2018-11-23T12:42:12.937Z,7.00
2018-11-23T12:44:42.757Z,7.00
2018-11-23T12:47:11.238Z,7.00
2018-11-23T12:49:39.924Z,7.10
2018-11-23T12:52:08.244Z,7.10
2018-11-23T12:54:36.579Z,7.20
2018-11-23T12:57:05.747Z,7.20
2018-11-23T12:59:34.195Z,7.30
2018-11-23T13:02:05.328Z,7.30
2018-11-23T13:04:33.702Z,7.30
2018-11-23T13:07:03.467Z,7.30
2018-11-23T13:09:31.904Z,7.30
2018-11-23T13:12:00.906Z,7.30
2018-11-23T13:14:29.570Z,7.30
2018-11-23T13:16:58.927Z,7.30
2018-11-23T13:19:28.011Z,7.30
2018-11-23T13:21:57.718Z,7.30
2018-11-23T13:24:26.180Z,7.30
2018-11-23T13:26:55.076Z,7.30
2018-11-23T13:29:23.407Z,7.40
2018-11-23T13:31:52.586Z,7.40
2018-11-23T13:34:22.547Z,7.40
2018-11-23T13:36:51.119Z,7.40
2018-11-23T13:39:19.524Z,7.40
2018-11-23T13:41:47.972Z,7.50
2018-11-23T13:44:16.366Z,7.40
2018-11-23T13:46:44.805Z,7.40
2018-11-23T13:49:13.283Z,7.40
2018-11-23T13:51:41.759Z,7.50
2018-11-23T13:54:10.133Z,7.50
2018-11-23T13:56:38.537Z,7.50
2018-11-23T13:59:07.060Z,7.50
2018-11-23T14:01:35.491Z,7.50
2018-11-23T14:04:03.920Z,7.40
2018-11-23T14:06:32.497Z,7.40
2018-11-23T14:09:00.915Z,7.40
2018-11-23T14:11:29.423Z,7.40
2018-11-23T14:13:57.879Z,7.40
2018-11-23T14:16:26.261Z,7.40
2018-11-23T14:18:54.697Z,7.40
2018-11-23T14:21:23.129Z,7.30
2018-11-23T14:23:51.602Z,7.20
2018-11-23T14:26:20.015Z,7.20
2018-11-23T14:28:48.600Z,7.20
2018-11-23T14:31:17.389Z,7.20
2018-11-23T14:33:45.928Z,7.20
2018-11-23T14:36:14.389Z,7.10
2018-11-23T14:38:43.102Z,7.20
2018-11-23T14:41:11.507Z,7.90
2018-11-23T14:43:40.143Z,8.50
2018-11-23T14:46:08.625Z,8.80
2018-11-23T14:48:37.080Z,8.90
2018-11-23T14:51:05.590Z,8.60
2018-11-23T14:53:34.003Z,8.50
2018-11-23T14:56:02.412Z,8.00
2018-11-23T14:58:30.872Z,7.60
2018-11-23T15:00:59.217Z,7.20
2018-11-23T15:03:27.652Z,7.10
2018-11-23T15:05:56.064Z,7.00
2018-11-23T15:08:26.661Z,6.90
2018-11-23T15:10:56.741Z,6.90
2018-11-23T15:13:25.145Z,6.80
2018-11-23T15:15:53.742Z,6.70
2018-11-23T15:18:23.456Z,6.60
2018-11-23T15:20:52.792Z,6.60
2018-11-23T15:23:21.396Z,6.50
2018-11-23T15:25:49.853Z,6.50
2018-11-23T15:28:18.344Z,6.40
2018-11-23T15:30:47.208Z,6.40
2018-11-23T15:33:17.017Z,6.30
2018-11-23T15:35:45.940Z,6.30
2018-11-23T15:38:17.125Z,6.20
2018-11-23T15:40:45.631Z,6.10
2018-11-23T15:43:15.166Z,6.20
2018-11-23T15:45:43.605Z,6.00
2018-11-23T15:48:12.475Z,6.00
2018-11-23T15:50:42.121Z,6.00
2018-11-23T15:53:12.156Z,5.90
2018-11-23T15:55:41.192Z,5.90
2018-11-23T15:58:11.041Z,5.90
2018-11-23T16:00:42.083Z,5.80
2018-11-23T16:03:11.737Z,5.70
2018-11-23T16:05:40.628Z,5.60
2018-11-23T16:08:11.996Z,5.50
2018-11-23T16:10:40.607Z,5.40
2018-11-23T16:13:11.271Z,5.30
2018-11-23T16:15:38.648Z,5.20
2018-11-23T16:18:07.809Z,5.30
2018-11-23T16:20:42.981Z,5.30
2018-11-23T16:23:15.967Z,5.20
2018-11-23T16:25:46.217Z,5.30
2018-11-23T16:28:14.928Z,5.20
2018-11-23T16:30:45.519Z,5.20
2018-11-23T16:33:15.963Z,5.20
2018-11-23T16:35:44.530Z,5.20
2018-11-23T16:38:15.160Z,5.10
2018-11-23T16:40:45.596Z,5.10
2018-11-23T16:43:14.792Z,5.10
2018-11-23T16:45:44.054Z,5.10
2018-11-23T16:48:13.378Z,5.20
2018-11-23T16:50:43.143Z,5.10
2018-11-23T16:53:11.787Z,5.10
2018-11-23T16:55:40.279Z,5.10
2018-11-23T16:58:10.768Z,5.10
2018-11-23T17:00:41.386Z,5.10
2018-11-23T17:03:12.057Z,5.10
2018-11-23T17:05:43.978Z,5.10
2018-11-23T17:08:13.371Z,5.00
2018-11-23T17:10:42.613Z,5.00
2018-11-23T17:13:11.397Z,4.90
2018-11-23T17:15:40.143Z,4.90
2018-11-23T17:18:08.956Z,4.80
2018-11-23T17:20:38.692Z,4.70
2018-11-23T17:23:09.064Z,4.60
2018-11-23T17:25:37.569Z,4.60
2018-11-23T17:28:07.412Z,4.70
2018-11-23T17:30:37.071Z,4.60
2018-11-23T17:33:09.153Z,4.60
2018-11-23T17:35:39.008Z,4.60
2018-11-23T17:38:07.921Z,4.50
2018-11-23T17:40:38.170Z,4.50
2018-11-23T17:43:06.869Z,4.50
2018-11-23T17:45:35.506Z,4.40
2018-11-23T17:48:04.870Z,4.30
2018-11-23T17:50:35.113Z,4.30
2018-11-23T17:53:03.755Z,4.20
2018-11-23T17:55:32.236Z,4.20
2018-11-23T17:58:01.738Z,4.20
2018-11-23T18:00:38.859Z,4.00
2018-11-23T18:03:04.141Z,3.90
2018-11-23T18:05:33.835Z,3.80
2018-11-23T18:08:03.023Z,3.70
2018-11-23T18:10:33.835Z,3.60
2018-11-23T18:13:03.654Z,3.50
2018-11-23T18:15:34.189Z,3.40
2018-11-23T18:18:04.181Z,3.30
2018-11-23T18:20:33.165Z,3.30
2018-11-23T18:23:05.166Z,3.30
2018-11-23T18:25:36.399Z,3.40
2018-11-23T18:28:05.556Z,3.50
2018-11-23T18:30:35.766Z,3.50
2018-11-23T18:33:08.152Z,3.60
2018-11-23T18:35:36.926Z,3.60
2018-11-23T18:38:05.775Z,3.50
2018-11-23T18:40:37.394Z,3.50
2018-11-23T18:43:03.776Z,3.50
2018-11-23T18:45:33.001Z,3.50
2018-11-23T18:48:01.594Z,3.50
2018-11-23T18:50:30.449Z,3.50
2018-11-23T18:52:59.028Z,3.40
2018-11-23T18:55:28.672Z,3.40
2018-11-23T18:57:57.100Z,3.30
2018-11-23T19:00:25.720Z,3.20
2018-11-23T19:02:54.351Z,3.10
2018-11-23T19:05:24.558Z,3.10
2018-11-23T19:07:53.009Z,3.00
2018-11-23T19:10:22.239Z,3.00
2018-11-23T19:12:51.021Z,3.00
2018-11-23T19:15:25.090Z,3.00
2018-11-23T19:17:49.676Z,3.00
2018-11-23T19:20:19.112Z,3.00
2018-11-23T19:22:49.400Z,3.10
2018-11-23T19:25:18.067Z,3.10
2018-11-23T19:27:46.498Z,3.10
2018-11-23T19:30:27.724Z,3.00
2018-11-23T19:32:49.112Z,2.90
2018-11-23T19:35:17.588Z,2.70
2018-11-23T19:37:46.065Z,2.60
2018-11-23T19:40:15.662Z,2.50
2018-11-23T19:42:45.453Z,2.50
2018-11-23T19:45:16.082Z,2.40
2018-11-23T19:47:44.743Z,2.30
2018-11-23T19:50:17.269Z,2.30
2018-11-23T19:52:46.033Z,2.20
2018-11-23T19:55:15.414Z,2.20
2018-11-23T19:57:43.893Z,2.20
2018-11-23T20:00:20.642Z,2.20
2018-11-23T20:02:49.141Z,2.20
2018-11-23T20:05:17.645Z,2.10
2018-11-23T20:07:47.346Z,2.10
2018-11-23T20:10:16.863Z,2.00
2018-11-23T20:12:50.245Z,2.00
2018-11-23T20:15:19.329Z,2.00
2018-11-23T20:17:48.138Z,2.00
2018-11-23T20:20:17.475Z,1.90
2018-11-23T20:22:47.491Z,1.90
2018-11-23T20:25:17.305Z,1.90
2018-11-23T20:27:47.989Z,1.90
2018-11-23T20:30:18.007Z,1.80
2018-11-23T20:32:47.271Z,1.80
2018-11-23T20:35:16.869Z,1.80
2018-11-23T20:37:45.482Z,1.80
2018-11-23T20:40:15.725Z,1.80
2018-11-23T20:42:44.385Z,1.80
2018-11-23T20:45:13.594Z,1.80
2018-11-23T20:47:42.362Z,1.80
2018-11-23T20:50:13.654Z,1.90
2018-11-23T20:52:42.091Z,1.90
2018-11-23T20:55:13.779Z,1.90
2018-11-23T20:57:42.405Z,1.90
2018-11-23T21:00:13.156Z,1.90
2018-11-23T21:02:41.788Z,1.90
2018-11-23T21:05:11.862Z,1.90
2018-11-23T21:07:40.479Z,1.80
2018-11-23T21:10:20.005Z,1.80
2018-11-23T21:12:43.057Z,1.80
2018-11-23T21:15:14.931Z,1.80
2018-11-23T21:17:43.863Z,1.80
2018-11-23T21:20:12.472Z,1.80
2018-11-23T21:22:41.036Z,1.80
2018-11-23T21:25:10.516Z,1.70
2018-11-23T21:27:40.280Z,1.60
2018-11-23T21:30:12.662Z,1.60
2018-11-23T21:32:41.708Z,1.60
2018-11-23T21:35:11.470Z,1.60
2018-11-23T21:37:39.912Z,1.60
2018-11-23T21:40:12.608Z,1.60
2018-11-23T21:42:44.384Z,1.50
2018-11-23T21:45:16.789Z,1.40
2018-11-23T21:47:48.051Z,1.40
2018-11-23T21:50:24.628Z,1.20
2018-11-23T21:52:45.983Z,1.30
2018-11-23T21:55:21.119Z,1.30
2018-11-23T21:57:49.899Z,1.30
2018-11-23T22:00:18.356Z,1.30
2018-11-23T22:02:47.096Z,1.30
2018-11-23T22:05:15.659Z,1.30
2018-11-23T22:07:44.222Z,1.40
2018-11-23T22:10:15.694Z,1.40
2018-11-23T22:12:44.170Z,1.40
2018-11-23T22:15:17.177Z,1.40
2018-11-23T22:17:45.959Z,1.40
2018-11-23T22:20:16.193Z,1.40
2018-11-23T22:22:44.734Z,1.30
2018-11-23T22:25:14.318Z,1.40
2018-11-23T22:27:43.198Z,1.40
2018-11-23T22:30:15.075Z,1.50
2018-11-23T22:32:43.758Z,1.50
2018-11-23T22:35:12.731Z,1.40
2018-11-23T22:37:41.120Z,1.30
2018-11-23T22:40:11.519Z,1.30
2018-11-23T22:42:43.345Z,1.30
2018-11-23T22:45:14.690Z,1.20
2018-11-23T22:47:43.227Z,1.20
2018-11-23T22:50:17.575Z,1.20
2018-11-23T22:52:46.215Z,1.20
2018-11-23T22:55:15.310Z,1.20
2018-11-23T22:57:43.799Z,1.20
2018-11-23T23:00:20.056Z,1.20
2018-11-23T23:02:49.023Z,1.10
2018-11-23T23:05:17.823Z,1.10
2018-11-23T23:07:46.590Z,1.10
2018-11-23T23:10:15.053Z,1.10
2018-11-23T23:12:43.431Z,1.10
2018-11-23T23:15:12.300Z,1.10
2018-11-23T23:17:41.291Z,1.20
2018-11-23T23:20:12.180Z,1.10
2018-11-23T23:22:43.664Z,1.00
2018-11-23T23:25:12.818Z,0.90
2018-11-23T23:27:41.327Z,0.80
2018-11-23T23:30:11.867Z,0.80
2018-11-23T23:32:40.636Z,0.80
2018-11-23T23:35:10.202Z,0.80
2018-11-23T23:37:38.856Z,0.70
2018-11-23T23:40:09.557Z,0.70
2018-11-23T23:42:38.049Z,0.70
2018-11-23T23:45:10.008Z,0.70
2018-11-23T23:47:38.545Z,0.80
2018-11-23T23:50:09.389Z,0.80
2018-11-23T23:52:37.848Z,0.80
2018-11-23T23:55:07.494Z,0.70
2018-11-23T23:57:35.964Z,0.60
